Flight Track Log - Related Links

Times and Time Zones

All times are in EDT time to prevent confusion due to time zone crossing. See the AAL2345 flight status page for this flight to view local times or setup timezone preferences in your user account.

Time Position Orientation Groundspeed Altitude Reporting Facility
EDT Latitude Longitude Course Direction KTS MPH feet Rate Location/Type
Tue 06:51:25 PM 42.0333 -87.9833 253° West 198 228 3,000  Level Chicago TRACON
Tue 06:53:00 PM 41.8786 -88.3286 242° Southwest  Level FlightAware Approximate
Tue 06:53:17 PM 42.1242 -88.0850 320° Northwest 251 289 7,200  Level Chicago Center
Tue 06:54:00 PM 41.8366 -88.4669 255° West  Level FlightAware Approximate
Tue 06:54:19 PM 42.1336 -88.1756 278° West 278 320 10,000  Level Chicago Center
Tue 06:55:00 PM 41.8051 -88.6112 254° West  Level FlightAware Approximate
Tue 06:55:21 PM 42.0906 -88.2642 237° Southwest 286 329 12,300  Level Chicago Center
Tue 06:56:00 PM 41.7737 -88.7527 253° West  Level FlightAware Approximate
Tue 06:56:23 PM 42.0294 -88.3533 227° Southwest 322 371 13,700  Level Chicago Center
Tue 06:57:25 PM 41.9478 -88.4722 227° Southwest 360 414 16,200 2,419 Climbing Chicago Center
Tue 06:58:27 PM 41.9175 -88.5942 252° West 347 399 18,700 2,064 Climbing Chicago Center
Tue 06:59:30 PM 41.8836 -88.7156 249° West 350 403 20,500 1,680 Climbing Chicago Center
Tue 07:00:32 PM 41.8483 -88.8406 249° West 361 415 22,200 1,452 Climbing Chicago Center
Tue 07:01:34 PM 41.8133 -88.9678 250° West 366 421 23,500 1,403 Climbing Chicago Center
Tue 07:02:36 PM 41.7667 -89.1269 249° West 385 443 25,100 1,355 Climbing Chicago Center
Tue 07:03:38 PM 41.7281 -89.2653 250° West 398 458 26,300 1,258 Climbing Chicago Center
Tue 07:04:40 PM 41.6878 -89.4031 249° West 402 463 27,700 823 Climbing Chicago Center
Tue 07:05:42 PM 41.6483 -89.5400 249° West 399 459 28,000 145 Climbing Chicago Center
Tue 07:06:44 PM 41.5842 -89.6658 236° Southwest 419 482 28,000  Level Chicago Center
Tue 07:07:47 PM 41.5106 -89.8197 237° Southwest 414 476 28,000  Level Chicago Center
Tue 07:08:48 PM 41.4506 -89.9453 238° Southwest 409 471 28,000  Level Chicago Center
Tue 07:09:51 PM 41.3906 -90.0725 238° Southwest 407 468 28,000  Level Chicago Center
Tue 07:10:53 PM 41.3294 -90.1994 237° Southwest 408 470 28,000  Level Chicago Center
Tue 07:11:55 PM 41.2689 -90.3267 238° Southwest 409 471 28,000  Level Chicago Center
Tue 07:12:57 PM 41.1956 -90.4789 237° Southwest 409 471 28,000  Level Chicago Center
Tue 07:13:59 PM 41.1339 -90.6050 237° Southwest 409 471 28,000  Level Chicago Center
Tue 07:15:01 PM 41.0725 -90.7306 237° Southwest 409 471 28,000  Level Chicago Center
Tue 07:16:03 PM 41.0114 -90.8567 237° Southwest 410 472 28,000  Level Chicago Center
Tue 07:17:05 PM 40.9486 -90.9825 237° Southwest 411 473 28,000  Level Chicago Center
Tue 07:18:07 PM 40.8744 -91.1342 237° Southwest 411 473 28,000  Level Chicago Center
Tue 07:19:09 PM 40.8108 -91.2619 237° Southwest 416 479 28,000  Level Chicago Center
Tue 07:20:12 PM 40.7464 -91.3900 236° Southwest 414 476 28,000  Level Chicago Center
Tue 07:21:14 PM 40.6844 -91.5158 237° Southwest 414 476 28,000  Level Chicago Center
Tue 07:22:16 PM 40.6214 -91.6411 236° Southwest 414 476 28,000  Level Chicago Center
Tue 07:23:02 PM 40.5700 -91.7392 235° Southwest 412 474 28,000  Level Kansas City Center
Tue 07:24:04 PM 40.5081 -91.8650 237° Southwest 413 475 28,000  Level Kansas City Center
Tue 07:25:06 PM 40.4311 -92.0150 236° Southwest 414 476 28,000  Level Kansas City Center
Tue 07:26:08 PM 40.3672 -92.1414 236° Southwest 416 479 28,000  Level Kansas City Center
Tue 07:27:10 PM 40.3036 -92.2653 236° Southwest 414 476 28,000  Level Kansas City Center
Tue 07:28:12 PM 40.2386 -92.3911 236° Southwest 413 475 28,000  Level Kansas City Center
Tue 07:29:14 PM 40.1650 -92.5319 236° Southwest 417 480 28,000  Level Kansas City Center
Tue 07:30:16 PM 40.0911 -92.6406 228° Southwest 427 491 28,000  Level Kansas City Center
Tue 07:31:18 PM 40.0075 -92.7369 221° Southwest 421 484 28,000  Level Kansas City Center
Tue 07:32:20 PM 39.9011 -92.8569 221° Southwest 425 489 28,000  Level Kansas City Center
Tue 07:33:22 PM 39.8125 -92.9589 221° Southwest 428 493 28,000  Level Kansas City Center
Tue 07:34:24 PM 39.7247 -93.0606 222° Southwest 428 493 28,000  Level Kansas City Center
Tue 07:35:26 PM 39.6358 -93.1575 220° Southwest 423 487 28,000  Level Kansas City Center
Tue 07:36:28 PM 39.5472 -93.2578 221° Southwest 425 489 28,000  Level Kansas City Center
Tue 07:37:30 PM 39.4394 -93.3781 221° Southwest 428 493 28,000  Level Kansas City Center
Tue 07:38:32 PM 39.3511 -93.4783 221° Southwest 426 490 28,000  Level Kansas City Center
Tue 07:39:34 PM 39.2647 -93.5753 221° Southwest 424 488 28,000  Level Kansas City Center
Tue 07:40:36 PM 39.1642 -93.6875 221° Southwest 427 491 28,000  Level Kansas City Center
Tue 07:41:38 PM 39.0767 -93.7836 220° Southwest 430 495 28,000  Level Kansas City Center
Tue 07:42:40 PM 38.9739 -93.8958 220° Southwest 433 498 28,000 290 Level Kansas City Center
Tue 07:43:42 PM 38.8875 -93.9908 221° Southwest 428 493 28,600 960 Climbing Kansas City Center
Tue 07:44:45 PM 38.7844 -94.1022 220° Southwest 431 496 30,000 1,258 Climbing Kansas City Center
Tue 07:45:46 PM 38.6981 -94.1972 221° Southwest 428 493 31,200 976 Climbing Kansas City Center
Tue 07:46:48 PM 38.6114 -94.2903 220° Southwest 424 488 32,000 387 Climbing Kansas City Center
Tue 07:47:50 PM 38.5092 -94.3997 220° Southwest 427 491 32,000  Level Kansas City Center
Tue 07:48:52 PM 38.4217 -94.4931 220° Southwest 426 490 32,000  Level Kansas City Center
Tue 07:49:54 PM 38.3194 -94.6028 220° Southwest 428 493 32,000  Level Kansas City Center
Tue 07:50:56 PM 38.2328 -94.6956 220° Southwest 427 491 32,000  Level Kansas City Center
Tue 07:51:58 PM 38.1289 -94.8056 220° Southwest 430 495 32,000  Level Kansas City Center
Tue 07:53:00 PM 38.0406 -94.8983 220° Southwest 430 495 32,000  Level Kansas City Center
Tue 07:54:02 PM 37.9372 -95.0069 220° Southwest 431 496 32,000  Level Kansas City Center
Tue 07:55:05 PM 37.8492 -95.1000 220° Southwest 431 496 32,000  Level Kansas City Center
Tue 07:56:06 PM 37.7519 -95.2031 220° Southwest 432 497 32,000  Level Kansas City Center
Tue 07:57:08 PM 37.6589 -95.2981 219° Southwest 432 497 32,000  Level Kansas City Center
Tue 07:58:10 PM 37.5656 -95.3956 220° Southwest 434 499 32,000  Level Kansas City Center
Tue 07:59:12 PM 37.4719 -95.4944 220° Southwest 438 504 32,000  Level Kansas City Center
Tue 08:00:14 PM 37.3614 -95.6125 220° Southwest 435 501 32,000  Level Kansas City Center
Tue 08:01:16 PM 37.2667 -95.7081 219° Southwest 436 502 32,000  Level Kansas City Center
Tue 08:02:18 PM 37.1739 -95.8039 219° Southwest 434 499 32,000  Level Kansas City Center
Tue 08:03:20 PM 37.0794 -95.9000 219° Southwest 436 502 32,000  Level Kansas City Center
Tue 08:04:22 PM 36.9858 -95.9964 219° Southwest 437 503 32,000  Level Kansas City Center
Tue 08:05:24 PM 36.8914 -96.0931 219° Southwest 438 504 32,000  Level Kansas City Center
Tue 08:06:26 PM 36.7778 -96.2081 219° Southwest 440 506 32,000  Level Kansas City Center
Tue 08:07:28 PM 36.6839 -96.3044 219° Southwest 439 505 32,000  Level Kansas City Center
Tue 08:08:30 PM 36.5883 -96.3997 219° Southwest 440 506 32,000  Level Kansas City Center
Tue 08:09:32 PM 36.4936 -96.4958 219° Southwest 441 507 32,000  Level Kansas City Center
Tue 08:10:34 PM 36.3969 -96.5911 218° Southwest 443 510 32,000  Level Kansas City Center
Tue 08:11:35 PM 36.3017 -96.6881 219° Southwest 444 511 32,000  Level Kansas City Center
Tue 08:12:37 PM 36.2033 -96.7844 218° Southwest 445 512 32,000 -435 Level Kansas City Center
Tue 08:13:39 PM 36.0889 -96.8986 219° Southwest 443 510 31,100 -919 Descending Kansas City Center
Tue 08:14:41 PM 35.9906 -96.9933 218° Southwest 446 513 30,100 -532 Descending Kansas City Center
Tue 08:15:43 PM 35.8919 -97.0906 219° Southwest 451 519 30,000 -48 Descending Kansas City Center
Tue 08:16:45 PM 35.7933 -97.1878 219° Southwest 453 521 30,000  Level Kansas City Center
Tue 08:17:47 PM 35.6958 -97.2842 219° Southwest 453 521 30,000  Level Kansas City Center
Tue 08:18:49 PM 35.5994 -97.3792 219° Southwest 449 517 30,000  Level Kansas City Center
Tue 08:19:38 PM 35.5000 -97.4825 220° Southwest 461 531 30,000  Level Fort Worth Center
Tue 08:20:39 PM 35.3978 -97.5792 218° Southwest 467 537 30,000  Level Fort Worth Center
Tue 08:21:39 PM 35.2747 -97.6094 191° South 451 519 30,000  Level Fort Worth Center
Tue 08:22:38 PM 35.1536 -97.5836 170° South 457 526 30,000  Level Fort Worth Center
Tue 08:23:39 PM 35.0244 -97.5656 173° South 463 533 30,000  Level Fort Worth Center
Tue 08:24:39 PM 34.8931 -97.5453 173° South 474 545 30,000 -454 Level Fort Worth Center
Tue 08:25:38 PM 34.7617 -97.5272 174° South 479 551 29,100 -1,050 Descending Fort Worth Center
Tue 08:26:39 PM 34.6281 -97.5094 174° South 479 551 27,900 -1,537 Descending Fort Worth Center
Tue 08:27:39 PM 34.5008 -97.4917 173° South 479 551 26,000 -1,950 Descending Fort Worth Center
Tue 08:28:39 PM 34.3736 -97.4739 173° South 474 545 24,000 -1,000 Descending Fort Worth Center
Tue 08:29:39 PM 34.2525 -97.4814 183° South 458 527 24,000  Level Fort Worth Center
Tue 08:30:39 PM 34.1336 -97.5064 190° South 446 513 24,000 -756 Level Fort Worth Center
Tue 08:31:38 PM 34.0167 -97.5264 188° South 434 499 22,500 -1,650 Descending Fort Worth Center
Tue 08:32:39 PM 33.8978 -97.5486 189° South 434 499 20,700 -2,050 Descending Fort Worth Center
Tue 08:33:38 PM 33.7767 -97.5708 189° South 417 480 18,400 -2,471 Descending Fort Worth Center
Tue 08:34:38 PM 33.6681 -97.5931 190° South 409 471 15,800 -2,050 Descending Fort Worth Center
Tue 08:35:38 PM 33.5806 -97.6106 189° South 409 471 14,300 -2,050 Descending Fort Worth Center
Tue 08:36:38 PM 33.4594 -97.6300 188° South 385 443 11,700 -1,700 Descending Fort Worth Center
Tue 08:37:38 PM 33.3633 -97.6297 180° South 360 414 10,900 -1,050 Descending Fort Worth Center
Tue 08:38:38 PM 33.3072 -97.5528 131° Southeast 297 342 9,600 -1,400 Descending Fort Worth Center
Tue 08:39:08 PM 33.2833 -97.5000 118° Southeast 302 348 8,800 -1,579 Descending Dallas / Fort Worth TRACON
Tue 08:40:13 PM 33.2667 -97.4000 101° East 302 348 7,100 -1,238 Descending Dallas / Fort Worth TRACON
Tue 08:41:14 PM 33.2167 -97.3167 126° Southeast 294 338 6,200 -823 Descending Dallas / Fort Worth TRACON
Tue 08:42:17 PM 33.1667 -97.2333 126° Southeast 280 322 5,400 -871 Descending Dallas / Fort Worth TRACON
Tue 08:43:18 PM 33.1167 -97.1667 132° Southeast 273 314 4,400 -984 Descending Dallas / Fort Worth TRACON

Login

Don't have an account? Register now (free) for customized features, flight alerts, and more!